Pagrindinis puslapis
METAR-TAF:

METAR-TAF

Oro uostai :

Sen Deni, Reunjonas

platuma: 20-53S, ilguma: 055-31E, Aukštis: 21 m

Dabartinis oras

Ataskaita buvo paskelbta 13 minutes, ne 21:30 UTC
Vėjas 9 kt iš Rytų/Pietryčių
Temperatūra 21°C
Drėgmė 78%
Slėgis 1018 hPa
Matomumas 10 km arba daugiau
Su prošvaistėmis ne aukštis 5600 ft

METAR: FMEE 182130Z AUTO 12009KT 9999 BKN056 21/17 Q1018 NOSIG

Laikas: 01:43 (21:43 UTC)

Prognozė

Ataskaita buvo paskelbta 4 valandos ir 43 minutes, ne 17:00 UTC
Prognozė galioja nuo 18 metu 18 UTC su 19 metu 24 UTC
Vėjas 10 kt iš Pietų
Matomumas 10 km arba daugiau
Mažai debesys ne aukštis 2500 ft
Su prošvaistėmis ne aukštis 5000 ft
Tapsmas
nuo 19 metu 05 UTC su 19 metu 08 UTC
Vėjas 10 kt iš Rytų
Tikimybė 30% :
Laikinai
nuo 19 metu 10 UTC su 19 metu 13 UTC
lietus
Tapsmas
nuo 19 metu 14 UTC su 19 metu 16 UTC
Vėjas 15 kt iš Rytų/Pietryčių

TAF: FMEE 181700Z 1818/1924 17010KT 9999 FEW025 BKN050 BECMG 1905/1908 08010KT PROB30 TEMPO 1910/1913 SHRA BECMG 1914/1916 12015KT

Orai ataskaitas ir orų prognozės (METAR, TAF).

turimą stotys yra geltonos ir raudonos taškus žemėlapyje.

Perkelti pele per norėdami pamatyti stoties vardą.

Tada spustelėkite, norėdami matyti oro stebėjimo ir prognozės.

Norėdami pakeisti žemėlapį: spustelėkite ant žalios mygtukų su juodo kryžiaus žemyn,; žalią mygtuką su brūkšneliu, jei norite nutolinti; arba žalių rodyklių gretimoms žemėlapius.


METAR-TAF: